createdAt,value
2022-12-23T00:00:10.000Z,6.95
2022-12-23T00:02:36.852Z,6.98
2022-12-23T00:05:04.893Z,7.06
2022-12-23T00:07:31.772Z,7.13
2022-12-23T00:09:59.172Z,7.13
2022-12-23T00:12:44.482Z,7.14
2022-12-23T00:15:12.026Z,7.19
2022-12-23T00:17:43.063Z,7.17
2022-12-23T00:20:12.983Z,7.15
2022-12-23T00:22:59.069Z,7.15
2022-12-23T00:25:41.354Z,7.15
2022-12-23T00:28:12.290Z,7.10
2022-12-23T00:30:49.468Z,7.13
2022-12-23T00:33:18.599Z,7.07
2022-12-23T00:35:45.870Z,7.11
2022-12-23T00:38:12.602Z,7.08
2022-12-23T00:40:57.611Z,7.05
2022-12-23T00:43:24.208Z,6.98
2022-12-23T00:45:50.835Z,6.96
2022-12-23T00:48:36.045Z,6.93
2022-12-23T00:51:02.691Z,6.99
2022-12-23T00:53:29.464Z,7.00
2022-12-23T00:55:56.020Z,7.00
2022-12-23T00:58:22.864Z,6.95
2022-12-23T01:01:08.020Z,6.95
2022-12-23T01:03:53.083Z,6.88
2022-12-23T01:06:19.691Z,6.90
2022-12-23T01:08:46.288Z,6.91
2022-12-23T01:11:13.207Z,6.94
2022-12-23T01:13:40.215Z,6.95
2022-12-23T01:16:15.375Z,6.98
2022-12-23T01:18:43.589Z,7.03
2022-12-23T01:21:10.938Z,7.04
2022-12-23T01:23:37.806Z,6.94
2022-12-23T01:26:06.953Z,6.95
2022-12-23T01:28:34.264Z,6.93
2022-12-23T01:31:02.542Z,6.98
2022-12-23T01:33:29.555Z,6.96
2022-12-23T01:36:07.808Z,6.98
2022-12-23T01:38:35.012Z,6.96
2022-12-23T01:41:01.576Z,6.95
2022-12-23T01:43:48.372Z,7.00
2022-12-23T01:46:15.586Z,7.00
2022-12-23T01:48:45.105Z,7.17
2022-12-23T01:51:30.359Z,7.07
2022-12-23T01:54:01.741Z,7.04
2022-12-23T01:56:37.257Z,7.13
2022-12-23T01:59:32.143Z,7.16
2022-12-23T02:02:17.452Z,7.17
2022-12-23T02:04:44.320Z,7.19
2022-12-23T02:18:53.304Z,7.26
2022-12-23T02:21:31.274Z,7.27
2022-12-23T02:24:11.336Z,7.28
2022-12-23T02:27:19.121Z,7.33
2022-12-23T02:30:07.704Z,7.31
2022-12-23T02:32:49.884Z,7.38
2022-12-23T02:35:28.278Z,7.38
2022-12-23T02:38:08.116Z,7.39
2022-12-23T02:40:52.697Z,7.40
2022-12-23T02:43:31.605Z,7.44
2022-12-23T02:46:07.408Z,7.42
2022-12-23T02:49:01.096Z,7.47
2022-12-23T02:51:33.600Z,7.43
2022-12-23T02:54:04.175Z,7.42
2022-12-23T02:56:34.072Z,7.43
2022-12-23T02:59:05.566Z,7.47
2022-12-23T03:01:33.704Z,7.46
2022-12-23T03:04:00.591Z,7.47
2022-12-23T03:06:32.128Z,7.45
2022-12-23T03:09:00.550Z,7.46
2022-12-23T03:11:50.977Z,7.34
2022-12-23T03:14:45.677Z,7.39
2022-12-23T03:17:21.183Z,7.45
2022-12-23T03:19:57.960Z,7.52
2022-12-23T03:22:42.888Z,7.48
2022-12-23T03:25:28.919Z,7.51
2022-12-23T03:28:00.138Z,7.49
2022-12-23T03:30:29.500Z,7.51
2022-12-23T03:33:01.836Z,7.55
2022-12-23T03:35:37.947Z,7.54
2022-12-23T03:38:07.662Z,7.55
2022-12-23T03:40:38.770Z,7.48
2022-12-23T03:43:11.557Z,7.50
2022-12-23T03:45:43.362Z,7.45
2022-12-23T03:48:23.957Z,7.41
2022-12-23T03:50:58.859Z,7.43
2022-12-23T03:54:00.029Z,7.33
2022-12-23T03:56:33.003Z,7.41
2022-12-23T03:59:03.619Z,7.34
2022-12-23T04:02:08.899Z,7.38
2022-12-23T04:04:54.173Z,7.39
2022-12-23T04:07:30.287Z,7.46
2022-12-23T04:09:58.436Z,7.44
2022-12-23T04:12:26.686Z,7.32
2022-12-23T04:14:53.590Z,7.28
2022-12-23T04:17:21.768Z,7.26
2022-12-23T04:19:48.419Z,7.16
2022-12-23T04:22:16.249Z,7.18
2022-12-23T04:24:43.305Z,7.15
2022-12-23T04:27:15.070Z,7.24
2022-12-23T04:29:43.282Z,7.24
2022-12-23T04:32:10.627Z,7.25
2022-12-23T04:34:37.220Z,7.03
2022-12-23T04:37:03.867Z,7.04
2022-12-23T04:39:30.453Z,7.03
2022-12-23T04:41:57.046Z,6.99
2022-12-23T04:44:23.643Z,6.94
2022-12-23T04:46:50.339Z,6.93
2022-12-23T04:49:16.860Z,6.96
2022-12-23T04:51:43.399Z,6.91
2022-12-23T04:54:10.129Z,6.93
2022-12-23T04:56:36.695Z,6.92
2022-12-23T04:59:04.439Z,6.93
2022-12-23T05:01:31.188Z,6.91
2022-12-23T05:03:57.842Z,6.87
2022-12-23T05:06:24.509Z,6.81
2022-12-23T05:08:51.131Z,6.81
2022-12-23T05:11:17.750Z,6.87
2022-12-23T05:13:44.360Z,6.91
2022-12-23T05:16:11.029Z,6.90
2022-12-23T05:18:37.596Z,6.85
2022-12-23T05:21:04.470Z,6.86
2022-12-23T05:23:31.032Z,6.87
2022-12-23T05:25:57.616Z,6.83
2022-12-23T05:28:24.354Z,6.85
2022-12-23T05:30:58.192Z,6.84
2022-12-23T05:33:24.793Z,6.86
2022-12-23T05:35:51.388Z,6.86
2022-12-23T05:38:18.098Z,6.89
2022-12-23T05:40:44.755Z,6.88
2022-12-23T05:43:11.417Z,6.84
2022-12-23T05:45:38.120Z,6.83
2022-12-23T05:48:04.895Z,6.83
2022-12-23T05:50:38.738Z,6.86
2022-12-23T05:53:06.110Z,6.83
2022-12-23T05:55:32.710Z,6.79
2022-12-23T05:57:59.513Z,6.75
2022-12-23T06:00:27.165Z,6.74
2022-12-23T06:02:54.519Z,6.77
2022-12-23T06:05:21.989Z,6.76
2022-12-23T06:07:48.570Z,6.78
2022-12-23T06:10:15.137Z,6.77
2022-12-23T06:12:41.660Z,6.78
2022-12-23T06:15:08.768Z,6.73
2022-12-23T06:17:35.604Z,6.77
2022-12-23T06:20:02.427Z,6.75
2022-12-23T06:22:29.189Z,6.73
2022-12-23T06:24:55.691Z,6.80
2022-12-23T06:27:22.291Z,6.81
2022-12-23T06:29:49.203Z,6.84
2022-12-23T06:32:15.784Z,6.82
2022-12-23T06:34:42.366Z,6.85
2022-12-23T06:37:08.967Z,6.89
2022-12-23T06:39:35.567Z,6.89
2022-12-23T06:42:02.145Z,6.89
2022-12-23T06:44:28.654Z,6.84
2022-12-23T06:46:55.201Z,6.77
2022-12-23T06:49:21.783Z,6.71
2022-12-23T06:51:48.296Z,6.74
2022-12-23T06:54:15.057Z,6.68
2022-12-23T06:56:41.686Z,6.65
2022-12-23T06:59:08.240Z,6.65
2022-12-23T07:01:34.903Z,6.65
2022-12-23T07:04:02.190Z,6.67
2022-12-23T07:06:29.250Z,6.62
2022-12-23T07:08:55.848Z,6.61
2022-12-23T07:11:22.441Z,6.64
2022-12-23T07:13:49.153Z,6.64
2022-12-23T07:16:15.789Z,6.70
2022-12-23T07:18:42.397Z,6.74
2022-12-23T07:21:18.778Z,6.78
2022-12-23T07:23:51.284Z,6.82
2022-12-23T07:26:17.793Z,6.82
2022-12-23T07:28:47.828Z,6.83
2022-12-23T07:31:15.513Z,6.86
2022-12-23T07:33:42.607Z,6.88
2022-12-23T07:36:09.578Z,6.85
2022-12-23T07:38:36.318Z,6.87
2022-12-23T07:41:02.924Z,6.87
2022-12-23T07:43:29.456Z,6.87
2022-12-23T07:46:00.419Z,6.87
2022-12-23T07:48:27.490Z,6.90
2022-12-23T07:51:00.729Z,6.91
2022-12-23T07:53:27.489Z,6.91
2022-12-23T07:55:56.578Z,6.95
2022-12-23T07:58:23.990Z,6.95
2022-12-23T08:00:50.728Z,6.95
2022-12-23T08:03:17.637Z,6.94
2022-12-23T08:05:44.399Z,6.93
2022-12-23T08:08:11.023Z,6.95
2022-12-23T08:10:41.399Z,6.95
2022-12-23T08:13:11.121Z,6.94
2022-12-23T08:15:37.673Z,6.97
2022-12-23T08:18:04.327Z,6.94
2022-12-23T08:20:31.430Z,7.00
2022-12-23T08:22:58.011Z,7.08
2022-12-23T08:25:24.544Z,7.12
2022-12-23T08:27:51.198Z,7.21
2022-12-23T08:30:18.986Z,7.21
2022-12-23T08:32:45.562Z,7.27
2022-12-23T08:35:12.237Z,7.32
2022-12-23T08:37:38.801Z,7.37
2022-12-23T08:40:05.817Z,7.41
2022-12-23T08:42:32.435Z,7.40
2022-12-23T08:44:59.052Z,7.42
2022-12-23T08:47:25.631Z,7.45
2022-12-23T08:49:56.430Z,7.46
2022-12-23T08:52:22.966Z,7.49
2022-12-23T08:54:49.551Z,7.47
2022-12-23T08:57:16.140Z,7.48
2022-12-23T08:59:43.015Z,7.55
2022-12-23T09:02:11.598Z,7.56
2022-12-23T09:04:38.903Z,7.56
2022-12-23T09:07:06.019Z,7.55
2022-12-23T09:09:32.739Z,7.57
2022-12-23T09:11:59.239Z,7.50
2022-12-23T09:14:25.865Z,7.58
2022-12-23T09:16:52.587Z,7.60
2022-12-23T09:19:19.199Z,7.59
2022-12-23T09:21:45.758Z,7.60
2022-12-23T09:24:12.329Z,7.62
2022-12-23T09:26:38.884Z,7.74
2022-12-23T09:29:05.467Z,7.76
2022-12-23T09:31:36.853Z,7.78
2022-12-23T09:34:05.157Z,7.80
2022-12-23T09:36:31.788Z,7.80
2022-12-23T09:38:58.823Z,7.82
2022-12-23T09:41:34.610Z,7.81
2022-12-23T09:44:19.529Z,7.87
2022-12-23T09:46:52.577Z,7.86
2022-12-23T09:49:22.212Z,7.89
2022-12-23T09:51:54.103Z,7.84
2022-12-23T09:54:28.937Z,7.83
2022-12-23T09:57:03.870Z,7.83
2022-12-23T10:00:07.120Z,7.82
2022-12-23T10:02:44.444Z,7.81
2022-12-23T10:05:25.132Z,7.83
2022-12-23T10:08:14.556Z,7.80
2022-12-23T10:10:45.450Z,7.81
2022-12-23T10:13:25.400Z,7.79
2022-12-23T10:15:53.910Z,7.80
2022-12-23T10:18:41.596Z,7.83
2022-12-23T10:21:24.692Z,7.86
2022-12-23T10:23:53.968Z,7.84
2022-12-23T10:26:43.759Z,7.85
2022-12-23T10:29:20.064Z,7.88
2022-12-23T10:32:11.544Z,7.92
2022-12-23T10:34:56.451Z,7.95
2022-12-23T10:37:35.854Z,7.95
2022-12-23T10:40:27.462Z,7.99
2022-12-23T10:43:28.115Z,7.99
2022-12-23T10:46:03.886Z,8.06
2022-12-23T10:48:33.206Z,8.13
2022-12-23T10:51:23.308Z,8.14
2022-12-23T10:53:51.995Z,8.23
2022-12-23T10:56:20.247Z,8.26
2022-12-23T10:58:52.751Z,8.25
2022-12-23T11:01:26.711Z,8.31
2022-12-23T11:04:05.904Z,8.35
2022-12-23T11:06:37.600Z,8.43
2022-12-23T11:09:06.328Z,8.47
2022-12-23T11:12:06.949Z,8.54
2022-12-23T11:14:35.825Z,8.53
2022-12-23T11:17:05.410Z,8.59
2022-12-23T11:19:32.178Z,8.63
2022-12-23T11:22:00.913Z,8.67
2022-12-23T11:24:35.451Z,8.70
2022-12-23T11:27:11.572Z,8.75
2022-12-23T11:29:47.537Z,8.73
2022-12-23T11:32:25.309Z,8.81
2022-12-23T11:34:54.030Z,8.76
2022-12-23T11:37:24.298Z,8.83
2022-12-23T11:39:51.163Z,8.85
2022-12-23T11:42:24.493Z,8.81
2022-12-23T11:44:54.843Z,8.87
2022-12-23T11:47:35.753Z,8.90
2022-12-23T11:50:25.033Z,8.95
2022-12-23T11:52:55.565Z,8.99
2022-12-23T11:55:29.859Z,9.01
2022-12-23T11:57:57.002Z,9.03
2022-12-23T12:00:28.974Z,9.07
2022-12-23T12:02:58.958Z,9.18
2022-12-23T12:05:35.127Z,9.22
2022-12-23T12:08:09.083Z,9.26
2022-12-23T12:10:38.565Z,9.39
2022-12-23T12:13:09.258Z,9.40
2022-12-23T12:15:51.005Z,9.55
2022-12-23T12:18:20.084Z,9.59
2022-12-23T12:20:55.415Z,9.74
2022-12-23T12:23:35.417Z,9.84
2022-12-23T12:26:11.683Z,9.88
2022-12-23T12:28:42.248Z,9.97
2022-12-23T12:31:20.468Z,10.07
2022-12-23T12:34:13.237Z,10.15
2022-12-23T12:37:08.027Z,10.25
2022-12-23T12:39:41.645Z,10.24
2022-12-23T12:42:20.352Z,10.28
2022-12-23T12:45:06.755Z,10.31
2022-12-23T12:47:58.394Z,10.24
2022-12-23T12:50:42.426Z,10.24
2022-12-23T12:53:18.676Z,10.25
2022-12-23T12:55:51.215Z,10.25
2022-12-23T12:58:22.864Z,10.26
2022-12-23T13:01:14.945Z,10.28
2022-12-23T13:04:02.752Z,10.28
2022-12-23T13:06:38.087Z,10.20
2022-12-23T13:09:31.457Z,10.19
2022-12-23T13:12:48.984Z,10.19
2022-12-23T13:15:28.252Z,10.15
2022-12-23T13:18:03.990Z,10.16
2022-12-23T13:20:33.915Z,10.13
2022-12-23T13:23:42.818Z,10.14
2022-12-23T13:26:27.681Z,10.19
2022-12-23T13:29:12.767Z,10.26
2022-12-23T13:31:55.088Z,10.35
2022-12-23T13:34:45.534Z,10.28
2022-12-23T13:37:22.335Z,10.32
2022-12-23T13:40:12.094Z,10.31
2022-12-23T13:42:45.978Z,10.32
2022-12-23T13:45:16.791Z,10.29
2022-12-23T13:48:14.860Z,10.33
2022-12-23T13:50:45.791Z,10.33
2022-12-23T13:53:40.171Z,10.31
2022-12-23T13:56:17.258Z,10.28
2022-12-23T13:58:49.196Z,10.34
2022-12-23T14:01:15.757Z,10.37
2022-12-23T14:03:42.699Z,10.37
2022-12-23T14:06:24.476Z,10.26
2022-12-23T14:08:52.715Z,10.33
2022-12-23T14:11:21.736Z,10.31
2022-12-23T14:13:51.105Z,10.29
2022-12-23T14:16:26.931Z,10.27
2022-12-23T14:19:09.179Z,10.32
2022-12-23T14:21:57.158Z,10.32
2022-12-23T14:24:43.026Z,10.29
2022-12-23T14:27:40.361Z,12.15
2022-12-23T14:30:21.993Z,10.37
2022-12-23T14:33:00.249Z,10.39
2022-12-23T14:35:46.754Z,10.34
2022-12-23T14:38:15.996Z,10.32
2022-12-23T14:40:42.548Z,10.56
2022-12-23T14:43:47.619Z,10.66
2022-12-23T14:46:36.952Z,10.50
2022-12-23T14:49:36.967Z,10.31
2022-12-23T14:51:51.149Z,10.39
2022-12-23T14:54:18.764Z,10.55
2022-12-23T14:57:05.446Z,10.52
2022-12-23T15:00:00.215Z,10.50
2022-12-23T15:02:35.941Z,10.46
2022-12-23T15:05:02.847Z,10.49
2022-12-23T15:07:43.065Z,10.41
2022-12-23T15:10:21.804Z,10.35
2022-12-23T15:12:57.744Z,10.41
2022-12-23T15:15:27.687Z,10.30
2022-12-23T15:18:04.854Z,10.33
2022-12-23T15:20:31.861Z,10.31
2022-12-23T15:23:02.378Z,10.26
2022-12-23T15:25:34.935Z,10.29
2022-12-23T15:28:03.626Z,10.39
2022-12-23T15:30:46.168Z,10.23
2022-12-23T15:34:00.819Z,10.16
2022-12-23T15:36:10.484Z,10.14
2022-12-23T15:38:40.728Z,10.10
2022-12-23T15:41:18.933Z,10.06
2022-12-23T15:43:45.641Z,9.99
2022-12-23T15:46:23.629Z,9.95
2022-12-23T15:48:53.876Z,9.97
2022-12-23T15:51:57.921Z,9.84
2022-12-23T15:54:31.489Z,9.77
2022-12-23T15:57:00.276Z,9.71
2022-12-23T15:59:38.778Z,9.77
2022-12-23T16:05:26.688Z,9.71
2022-12-23T16:08:10.630Z,9.58
2022-12-23T16:10:38.161Z,9.54
2022-12-23T16:13:04.767Z,9.50
2022-12-23T16:15:32.978Z,9.55
2022-12-23T16:18:25.469Z,9.51
2022-12-23T16:20:53.872Z,9.72
2022-12-23T16:23:21.732Z,9.62
2022-12-23T16:25:52.823Z,9.55
2022-12-23T16:28:24.343Z,9.37
2022-12-23T16:30:57.528Z,9.41
2022-12-23T16:33:42.524Z,9.38
2022-12-23T16:36:19.126Z,9.35
2022-12-23T16:38:46.700Z,9.32
2022-12-23T16:41:13.381Z,9.36
2022-12-23T16:43:43.277Z,9.37
2022-12-23T16:46:17.484Z,9.33
2022-12-23T16:48:55.602Z,9.22
2022-12-23T16:51:23.552Z,9.22
2022-12-23T16:53:52.560Z,9.16
2022-12-23T16:56:22.241Z,9.18
2022-12-23T16:58:48.853Z,9.06
2022-12-23T17:01:24.856Z,9.09
2022-12-23T17:03:52.102Z,8.99
2022-12-23T17:06:19.828Z,9.10
2022-12-23T17:08:46.633Z,8.88
2022-12-23T17:11:35.030Z,8.85
2022-12-23T17:14:04.956Z,9.01
2022-12-23T17:16:34.593Z,8.92
2022-12-23T17:19:01.223Z,8.86
2022-12-23T17:21:33.867Z,8.81
2022-12-23T17:24:29.796Z,8.76
2022-12-23T17:26:59.469Z,8.69
2022-12-23T17:29:26.092Z,8.68
2022-12-23T17:31:53.113Z,8.78
2022-12-23T17:34:22.034Z,8.78
2022-12-23T17:36:50.717Z,8.84
2022-12-23T17:39:19.254Z,8.76
2022-12-23T17:41:46.316Z,8.79
2022-12-23T17:44:17.306Z,8.68
2022-12-23T17:46:46.085Z,8.67
2022-12-23T17:49:12.907Z,8.68
2022-12-23T17:51:40.493Z,8.56
2022-12-23T17:54:07.522Z,8.54
2022-12-23T17:56:34.168Z,8.47
2022-12-23T17:59:00.836Z,8.46
2022-12-23T18:01:30.444Z,8.41
2022-12-23T18:03:58.897Z,8.43
2022-12-23T18:06:27.453Z,8.33
2022-12-23T18:08:54.398Z,8.31
2022-12-23T18:11:32.491Z,8.33
2022-12-23T18:13:59.780Z,8.39
2022-12-23T18:16:26.575Z,8.42
2022-12-23T18:18:53.158Z,8.37
2022-12-23T18:21:25.568Z,8.41
2022-12-23T18:23:54.855Z,8.51
2022-12-23T18:26:21.435Z,8.47
2022-12-23T18:28:47.977Z,8.42
2022-12-23T18:31:17.267Z,8.41
2022-12-23T18:33:44.907Z,8.34
2022-12-23T18:36:33.315Z,8.42
2022-12-23T18:39:00.185Z,8.32
2022-12-23T18:41:27.568Z,8.30
2022-12-23T18:43:54.704Z,8.23
2022-12-23T18:46:21.528Z,8.11
2022-12-23T18:48:48.785Z,8.14
2022-12-23T18:51:17.238Z,8.33
2022-12-23T18:53:44.253Z,8.39
2022-12-23T18:56:16.182Z,8.24
2022-12-23T18:58:42.847Z,8.23
2022-12-23T19:01:13.673Z,8.50
2022-12-23T19:03:41.088Z,8.25
2022-12-23T19:06:09.151Z,8.19
2022-12-23T19:08:37.249Z,8.21
2022-12-23T19:11:13.850Z,8.22
2022-12-23T19:13:40.574Z,8.13
2022-12-23T19:16:07.294Z,8.22
2022-12-23T19:18:33.887Z,8.12
2022-12-23T19:21:04.665Z,8.28
2022-12-23T19:23:31.407Z,8.23
2022-12-23T19:25:57.981Z,8.23
2022-12-23T19:28:24.645Z,8.17
2022-12-23T19:30:51.566Z,8.10
2022-12-23T19:33:21.680Z,8.15
2022-12-23T19:35:49.503Z,8.19
2022-12-23T19:38:16.048Z,8.22
2022-12-23T19:40:42.632Z,8.25
2022-12-23T19:43:09.180Z,8.24
2022-12-23T19:45:35.689Z,8.23
2022-12-23T19:48:02.503Z,8.21
2022-12-23T19:50:29.193Z,8.21
2022-12-23T19:52:56.435Z,8.30
2022-12-23T19:55:24.000Z,8.38
2022-12-23T19:57:51.759Z,8.37
2022-12-23T20:00:18.400Z,8.28
2022-12-23T20:02:44.987Z,8.27
2022-12-23T20:05:11.598Z,8.25
2022-12-23T20:07:38.188Z,8.22
2022-12-23T20:10:06.024Z,8.23
2022-12-23T20:12:32.722Z,8.20
2022-12-23T20:14:59.694Z,8.21
2022-12-23T20:17:26.298Z,8.10
2022-12-23T20:19:52.818Z,8.18
2022-12-23T20:22:19.330Z,8.24
2022-12-23T20:24:45.904Z,8.14
2022-12-23T20:27:15.602Z,8.11
2022-12-23T20:29:42.718Z,8.08
2022-12-23T20:32:09.360Z,7.98
2022-12-23T20:34:39.520Z,8.04
2022-12-23T20:37:07.065Z,7.97
2022-12-23T20:39:33.742Z,7.88
2022-12-23T20:42:00.267Z,7.84
2022-12-23T20:44:35.984Z,7.87
2022-12-23T20:47:05.540Z,7.80
2022-12-23T20:49:32.339Z,7.81
2022-12-23T20:51:58.926Z,7.84
2022-12-23T20:54:32.223Z,7.72
2022-12-23T20:56:59.588Z,7.67
2022-12-23T20:59:26.159Z,7.58
2022-12-23T21:01:52.890Z,7.63
2022-12-23T21:04:20.437Z,7.64
2022-12-23T21:06:47.084Z,7.69
2022-12-23T21:09:15.624Z,7.58
2022-12-23T21:11:44.252Z,7.58
2022-12-23T21:14:11.922Z,7.60
2022-12-23T21:16:39.326Z,7.60
2022-12-23T21:19:08.229Z,7.51
2022-12-23T21:21:34.815Z,7.54
2022-12-23T21:24:04.638Z,7.46
2022-12-23T21:26:33.168Z,7.52
2022-12-23T21:29:01.300Z,7.56
2022-12-23T21:31:29.467Z,7.55
2022-12-23T21:33:56.498Z,7.44
2022-12-23T21:36:25.937Z,7.42
2022-12-23T21:38:52.665Z,7.34
2022-12-23T21:41:22.246Z,7.33
2022-12-23T21:43:49.419Z,7.28
2022-12-23T21:46:18.846Z,7.23
2022-12-23T21:48:46.065Z,7.30
2022-12-23T21:51:18.998Z,7.29
2022-12-23T21:53:47.158Z,7.17
2022-12-23T21:56:17.193Z,7.20
2022-12-23T21:58:44.906Z,7.22
2022-12-23T22:01:14.550Z,7.22
2022-12-23T22:03:42.044Z,7.18
2022-12-23T22:06:11.866Z,7.20
2022-12-23T22:08:39.214Z,7.16
2022-12-23T22:11:07.588Z,7.22
2022-12-23T22:13:34.151Z,7.16
2022-12-23T22:16:00.755Z,7.15
2022-12-23T22:18:27.337Z,7.25
2022-12-23T22:20:54.105Z,7.13
2022-12-23T22:23:20.644Z,7.15
2022-12-23T22:25:54.560Z,7.08
2022-12-23T22:28:21.852Z,7.10
2022-12-23T22:30:48.580Z,7.10
2022-12-23T22:33:16.165Z,7.12
2022-12-23T22:35:43.057Z,7.10
2022-12-23T22:38:09.594Z,7.15
2022-12-23T22:40:36.232Z,7.11
2022-12-23T22:43:02.852Z,7.11
2022-12-23T22:45:29.515Z,7.12
2022-12-23T22:47:56.099Z,7.07
2022-12-23T22:50:22.702Z,7.03
2022-12-23T22:52:49.423Z,7.06
2022-12-23T22:55:16.022Z,7.07
2022-12-23T22:57:42.534Z,7.10
2022-12-23T23:00:12.563Z,7.08
2022-12-23T23:02:39.425Z,7.05
2022-12-23T23:05:12.430Z,6.96
2022-12-23T23:07:39.663Z,7.04
2022-12-23T23:10:07.296Z,6.98
2022-12-23T23:12:33.967Z,6.96
2022-12-23T23:15:00.520Z,6.94
2022-12-23T23:17:28.404Z,6.93
2022-12-23T23:19:55.138Z,6.95
2022-12-23T23:22:23.342Z,6.92
2022-12-23T23:24:50.978Z,6.90
2022-12-23T23:27:17.964Z,6.84
2022-12-23T23:29:44.611Z,6.87
2022-12-23T23:32:11.631Z,6.87
2022-12-23T23:34:38.227Z,6.79
2022-12-23T23:37:05.476Z,6.71
2022-12-23T23:39:32.027Z,6.76
2022-12-23T23:41:58.864Z,6.67
2022-12-23T23:44:25.510Z,6.71
2022-12-23T23:46:52.075Z,6.64
2022-12-23T23:49:18.663Z,6.58
2022-12-23T23:51:45.283Z,6.62
2022-12-23T23:54:11.976Z,6.73
2022-12-23T23:56:39.589Z,6.69
2022-12-23T23:59:07.875Z,6.67
